Morson, Canada
Current Conditions -  °F | °C
As of 6:53 PM on Monday 20 Oct 2014 (Local Time) from KBDE Reporting Station
Clear Clear  
Wind Chill: 43°   Ceiling: Unl
Heat Index: 43°   Visibility: 10mi
Dew Point: 36°   Wind: 3mph
Humidity: 76%   Direction: 340°NNW
Pressure: 30.09"   Gusts: NA
Location:  49.1°N, 94.32°W
Report Text: KBDE 202353Z AUTO 34003KT 10SM CLR 06/02 A3009 RMK AO2 SLP199 T00610022 10100 20056 53010 TSNO
Loading
Personal Weather Stations






























Interactive Weather Map
Tropical Storm Tracking
New forecast layout! Learn more

10-Day Weather Forecast

Advertisements
Track Severe Weather on mobile